Time;durP1;ratioP1;P1;durP2;ratioP2;P2;SDS_P1;SDS_P2;PMS_P1;PMS_P2;Temp;Humidity;BMP_temperature;BMP_pressure;BME280_temperature;BME280_humidity;BME280_pressure;Samples;Min_cycle;Max_cycle;Signal;HPM_P1;HPM_P2
2022/05/29 00:02:06;;;;;;;1.20;1.10;;;21.90;43.70;;;;;;5015709;28;20025;-68
2022/05/29 00:04:33;;;;;;;2.47;1.33;;;21.90;43.60;;;;;;5015915;28;20030;-69
2022/05/29 00:06:59;;;;;;;1.30;1.20;;;21.90;43.60;;;;;;5015565;28;20034;-69
2022/05/29 00:09:38;;;;;;;1.38;1.23;;;21.90;43.60;;;;;;5015496;28;20067;-69
2022/05/29 00:12:05;;;;;;;1.25;1.10;;;21.90;43.60;;;;;;5015526;28;20061;-69
2022/05/29 00:14:32;;;;;;;1.30;1.20;;;21.90;43.60;;;;;;5014012;28;20026;-68
2022/05/29 00:16:58;;;;;;;2.30;1.48;;;21.90;43.60;;;;;;4997954;28;20040;-69
2022/05/29 00:19:24;;;;;;;1.80;1.10;;;21.90;43.60;;;;;;5015291;28;20030;-68
2022/05/29 00:21:51;;;;;;;2.20;1.10;;;21.90;43.60;;;;;;5015280;28;20026;-68
2022/05/29 00:24:17;;;;;;;0.95;0.73;;;21.90;43.60;;;;;;5015167;28;20034;-69
2022/05/29 00:26:43;;;;;;;1.20;1.10;;;21.90;43.60;;;;;;5014912;28;20133;-69
2022/05/29 00:29:08;;;;;;;0.98;0.98;;;21.90;43.60;;;;;;5014217;28;20080;-69
2022/05/29 00:31:35;;;;;;;1.30;1.20;;;21.80;43.50;;;;;;5015174;28;20416;-68
2022/05/29 00:34:01;;;;;;;2.72;1.20;;;21.80;43.60;;;;;;5013820;28;20112;-68
2022/05/29 00:36:37;;;;;;;1.70;1.30;;;21.80;43.60;;;;;;5013942;28;20033;-68
2022/05/29 00:39:03;;;;;;;1.27;1.17;;;21.80;43.70;;;;;;5013664;28;20026;-69
2022/05/29 00:41:34;;;;;;;1.50;1.02;;;21.80;43.70;;;;;;5014996;28;20482;-68
2022/05/29 00:44:10;;;;;;;1.10;1.00;;;21.80;43.80;;;;;;5014290;28;20034;-69
2022/05/29 00:46:36;;;;;;;1.17;1.08;;;21.70;43.80;;;;;;5015096;28;20041;-69
2022/05/29 00:49:06;;;;;;;1.23;1.15;;;21.70;43.80;;;;;;5015168;28;20049;-68
2022/05/29 00:51:38;;;;;;;1.85;1.15;;;21.60;44.50;;;;;;5014826;28;20108;-69
2022/05/29 00:54:06;;;;;;;2.05;1.38;;;21.60;43.80;;;;;;5015300;28;20464;-68
2022/05/29 00:56:33;;;;;;;1.17;0.90;;;21.60;43.90;;;;;;5014511;28;20472;-68
2022/05/29 00:59:00;;;;;;;1.42;1.10;;;21.60;44.00;;;;;;5013369;28;20120;-69
2022/05/29 01:01:27;;;;;;;1.48;1.38;;;21.50;43.90;;;;;;5014427;28;20026;-68
2022/05/29 01:03:55;;;;;;;2.63;1.35;;;21.50;44.00;;;;;;5014691;28;20100;-69
2022/05/29 01:06:21;;;;;;;1.45;1.10;;;21.50;44.10;;;;;;5014282;28;20124;-69
2022/05/29 01:08:47;;;;;;;1.10;1.00;;;21.50;44.10;;;;;;5014542;28;20030;-68
2022/05/29 01:11:51;;;;;;;1.40;1.10;;;21.50;44.30;;;;;;5014818;28;20420;-69
2022/05/29 01:14:28;;;;;;;1.20;1.10;;;21.40;44.40;;;;;;5014410;28;20026;-67
2022/05/29 01:17:30;;;;;;;0.90;0.90;;;21.50;44.40;;;;;;5014408;28;20041;-67
2022/05/29 01:20:05;;;;;;;0.90;0.90;;;21.40;44.70;;;;;;5014304;28;20030;-68
2022/05/29 01:22:42;;;;;;;0.90;0.90;;;21.40;44.40;;;;;;5014791;28;20034;-68
2022/05/29 01:25:49;;;;;;;1.17;1.08;;;21.40;44.60;;;;;;5014023;28;20034;-68
2022/05/29 01:28:30;;;;;;;1.27;1.17;;;21.40;44.80;;;;;;5013863;28;20048;-68
2022/05/29 01:31:06;;;;;;;1.92;1.40;;;21.40;44.90;;;;;;5012800;28;20026;-68
2022/05/29 01:33:48;;;;;;;0.82;0.82;;;21.40;44.80;;;;;;4996923;28;20026;-68
2022/05/29 01:36:23;;;;;;;1.52;1.10;;;21.30;44.90;;;;;;5013169;28;20041;-68
2022/05/29 01:39:11;;;;;;;1.58;1.25;;;21.30;44.90;;;;;;5014193;28;20057;-68
2022/05/29 01:41:48;;;;;;;1.00;0.90;;;21.30;45.30;;;;;;5013967;28;20100;-68
2022/05/29 01:44:52;;;;;;;1.63;1.15;;;21.30;45.10;;;;;;5014390;28;20034;-68
2022/05/29 01:47:22;;;;;;;1.30;1.10;;;21.30;45.60;;;;;;5013151;28;20042;-68
2022/05/29 01:49:51;;;;;;;1.85;1.30;;;21.30;45.90;;;;;;5012673;28;20037;-68
2022/05/29 01:52:32;;;;;;;1.30;1.20;;;21.20;45.30;;;;;;5011876;28;20033;-68
2022/05/29 01:55:10;;;;;;;1.63;1.35;;;21.20;45.50;;;;;;5013957;28;20373;-68
2022/05/29 01:57:40;;;;;;;1.33;1.23;;;21.20;46.20;;;;;;5012708;28;20396;-68
2022/05/29 02:00:17;;;;;;;1.23;1.13;;;21.20;45.50;;;;;;5012719;28;20037;-68
2022/05/29 02:03:00;;;;;;;1.30;1.20;;;21.20;45.60;;;;;;5013953;28;20126;-68
2022/05/29 02:05:31;;;;;;;6.80;1.20;;;21.20;45.60;;;;;;5013876;28;20030;-68
2022/05/29 02:08:08;;;;;;;1.38;1.27;;;21.30;45.60;;;;;;5014063;28;20057;-67
2022/05/29 02:10:51;;;;;;;1.30;1.20;;;21.30;45.70;;;;;;5013609;28;20486;-67
2022/05/29 02:13:41;;;;;;;1.27;1.17;;;21.20;45.80;;;;;;5013057;28;20441;-67
2022/05/29 02:16:18;;;;;;;1.40;1.30;;;21.30;45.70;;;;;;5012527;28;20049;-67
2022/05/29 02:18:55;;;;;;;1.48;1.13;;;21.20;45.80;;;;;;5012644;28;20073;-68
2022/05/29 02:21:42;;;;;;;1.40;1.30;;;21.30;45.80;;;;;;5012215;28;20121;-68
2022/05/29 02:24:13;;;;;;;1.20;1.13;;;21.30;46.10;;;;;;5013966;28;20178;-67
2022/05/29 02:26:55;;;;;;;1.90;1.23;;;21.30;45.80;;;;;;5013649;28;20061;-68
2022/05/29 02:29:21;;;;;;;1.98;1.40;;;21.30;46.10;;;;;;5013516;28;20511;-68
2022/05/29 02:32:12;;;;;;;2.13;1.55;;;21.30;46.00;;;;;;5012310;28;20022;-68
2022/05/29 02:34:49;;;;;;;1.40;1.30;;;21.30;46.30;;;;;;5013405;28;20527;-67
2022/05/29 02:37:35;;;;;;;1.73;1.60;;;21.30;46.10;;;;;;5012543;28;20034;-68
2022/05/29 02:40:52;;;;;;;1.65;1.52;;;21.30;46.40;;;;;;5013247;28;20034;-70
2022/05/29 02:43:42;;;;;;;1.70;1.58;;;21.30;46.80;;;;;;4994829;28;20033;-68
2022/05/29 02:46:32;;;;;;;1.50;1.23;;;21.30;46.30;;;;;;5011198;28;20117;-69
2022/05/29 02:49:06;;;;;;;1.42;1.30;;;21.30;46.50;;;;;;5009742;28;20034;-69
2022/05/29 02:51:38;;;;;;;2.05;1.70;;;21.30;46.40;;;;;;5012281;28;20032;-68
2022/05/29 02:54:04;;;;;;;1.98;1.50;;;21.30;46.40;;;;;;5013529;28;20026;-68
2022/05/29 02:56:30;;;;;;;1.92;1.48;;;21.30;46.50;;;;;;5013141;28;20044;-69
2022/05/29 02:58:58;;;;;;;1.95;1.50;;;21.30;46.50;;;;;;5011877;28;20053;-69
2022/05/29 03:01:43;;;;;;;2.60;1.85;;;21.30;46.50;;;;;;5013502;28;20026;-68
2022/05/29 03:04:30;;;;;;;2.92;1.50;;;21.30;46.50;;;;;;5013247;28;20495;-69
2022/05/29 03:07:03;;;;;;;2.20;1.52;;;21.30;46.60;;;;;;5015479;28;20136;-69
2022/05/29 03:10:00;;;;;;;1.50;1.40;;;21.30;46.40;;;;;;5016656;28;20034;-68
2022/05/29 03:12:54;;;;;;;1.45;1.35;;;21.30;46.40;;;;;;5017062;28;20076;-68
2022/05/29 03:15:28;;;;;;;1.38;1.27;;;21.40;46.50;;;;;;5015491;28;20384;-69
2022/05/29 03:18:16;;;;;;;1.27;1.17;;;21.40;46.30;;;;;;5016817;28;20120;-69
2022/05/29 03:20:52;;;;;;;1.95;1.60;;;21.40;46.40;;;;;;5015676;28;20038;-68
2022/05/29 03:23:41;;;;;;;1.60;1.50;;;21.40;46.10;;;;;;5016327;28;20037;-68
2022/05/29 03:26:15;;;;;;;1.30;1.20;;;21.50;46.10;;;;;;5016426;28;20034;-68
2022/05/29 03:28:47;;;;;;;1.50;1.40;;;21.50;46.10;;;;;;5016858;28;20512;-69
2022/05/29 03:31:25;;;;;;;1.58;1.40;;;21.50;46.00;;;;;;5015140;28;20034;-69
2022/05/29 03:33:51;;;;;;;1.40;1.30;;;21.50;46.10;;;;;;5016167;28;20053;-68
2022/05/29 03:36:17;;;;;;;2.03;1.70;;;21.60;46.00;;;;;;5014642;28;20029;-69
2022/05/29 03:38:46;;;;;;;1.63;1.40;;;21.60;45.90;;;;;;5015006;28;20034;-69
2022/05/29 03:41:19;;;;;;;1.50;1.30;;;21.60;45.90;;;;;;5016127;28;20155;-68
2022/05/29 03:43:44;;;;;;;1.70;1.55;;;21.70;45.90;;;;;;5016359;28;20100;-69
2022/05/29 03:46:10;;;;;;;1.20;1.10;;;21.70;45.80;;;;;;5016266;28;20124;-69
2022/05/29 03:48:36;;;;;;;1.67;1.58;;;21.70;45.70;;;;;;5016030;28;20420;-69
2022/05/29 03:51:06;;;;;;;1.58;1.48;;;21.80;45.70;;;;;;5015883;28;20415;-68
2022/05/29 03:53:32;;;;;;;1.90;1.50;;;21.80;45.60;;;;;;5014633;28;20023;-69
2022/05/29 03:55:58;;;;;;;1.40;1.30;;;21.80;45.50;;;;;;5015176;28;20128;-68
2022/05/29 03:58:23;;;;;;;1.25;1.15;;;21.80;45.50;;;;;;5015725;28;20030;-68
2022/05/29 04:00:49;;;;;;;1.30;1.20;;;21.90;45.50;;;;;;5015715;28;20096;-69
2022/05/29 04:03:15;;;;;;;1.85;1.50;;;21.90;45.40;;;;;;5014510;28;20029;-69
2022/05/29 04:05:41;;;;;;;1.45;1.30;;;22.00;45.40;;;;;;5015478;28;20387;-69
2022/05/29 04:13:42;;;;;;;1.30;1.20;;;22.00;45.80;;;;;;5015538;28;20033;-69
2022/05/29 04:16:09;;;;;;;1.13;1.13;;;22.10;45.10;;;;;;5014814;28;20117;-67
2022/05/29 04:18:34;;;;;;;2.00;1.50;;;22.10;45.10;;;;;;5015423;28;20030;-68
2022/05/29 04:21:00;;;;;;;2.05;1.20;;;22.10;45.00;;;;;;5015456;28;20032;-68
2022/05/29 04:23:26;;;;;;;1.50;1.30;;;22.10;45.00;;;;;;5014407;28;20068;-68
2022/05/29 04:25:52;;;;;;;1.30;1.20;;;22.20;45.10;;;;;;5015234;28;20490;-68
2022/05/29 04:28:18;;;;;;;1.33;1.20;;;22.20;45.00;;;;;;5015688;28;20428;-68
2022/05/29 04:30:44;;;;;;;1.40;1.30;;;22.20;45.00;;;;;;5015588;28;20029;-69
2022/05/29 04:33:10;;;;;;;1.50;1.30;;;22.20;44.90;;;;;;5015021;28;20040;-69
2022/05/29 04:35:38;;;;;;;1.20;1.10;;;22.30;44.90;;;;;;5013843;28;20380;-70
2022/05/29 04:38:04;;;;;;;1.17;1.10;;;22.30;44.90;;;;;;5014980;28;20057;-69
2022/05/29 04:40:32;;;;;;;1.02;1.00;;;22.30;44.80;;;;;;5014836;28;20030;-69
2022/05/29 04:42:58;;;;;;;2.67;1.30;;;22.30;44.80;;;;;;5013671;28;20523;-69
2022/05/29 04:45:24;;;;;;;1.23;1.13;;;22.40;44.80;;;;;;5013584;28;20030;-69
2022/05/29 04:47:49;;;;;;;1.40;1.30;;;22.40;44.80;;;;;;5013519;28;20080;-69
2022/05/29 04:50:15;;;;;;;1.17;1.05;;;22.40;44.80;;;;;;5013590;28;20091;-69
2022/05/29 04:52:41;;;;;;;1.10;1.00;;;22.40;44.80;;;;;;5014700;28;20033;-69
2022/05/29 04:55:08;;;;;;;1.98;1.20;;;22.40;44.70;;;;;;5013617;28;20026;-69
2022/05/29 04:57:34;;;;;;;0.95;0.95;;;22.40;44.70;;;;;;5013249;28;20030;-69
2022/05/29 04:59:59;;;;;;;1.23;1.13;;;22.40;44.60;;;;;;5014757;28;20029;-69
2022/05/29 05:02:26;;;;;;;1.02;0.82;;;22.50;44.60;;;;;;5014620;28;20026;-69
2022/05/29 05:04:52;;;;;;;1.80;0.98;;;22.60;44.60;;;;;;5014724;28;20495;-68
2022/05/29 05:07:18;;;;;;;1.08;0.88;;;22.60;44.50;;;;;;5014563;28;20041;-68
2022/05/29 05:09:43;;;;;;;2.47;0.90;;;22.60;44.50;;;;;;5013208;28;20026;-68
2022/05/29 05:12:10;;;;;;;1.13;0.90;;;22.60;44.50;;;;;;5014282;28;20026;-69
2022/05/29 05:14:36;;;;;;;2.00;0.80;;;22.60;44.40;;;;;;5014603;28;20033;-68
2022/05/29 05:17:02;;;;;;;0.90;0.90;;;22.70;44.40;;;;;;5013179;28;20037;-69
2022/05/29 05:19:28;;;;;;;1.35;1.08;;;22.70;44.40;;;;;;5013007;28;20384;-68
2022/05/29 05:21:53;;;;;;;2.92;1.00;;;22.70;44.30;;;;;;5014307;28;20057;-69
2022/05/29 05:24:19;;;;;;;1.00;0.90;;;22.70;44.40;;;;;;5014274;28;20599;-68
2022/05/29 05:26:45;;;;;;;1.92;0.90;;;22.70;44.30;;;;;;5013030;28;20053;-69
2022/05/29 05:29:12;;;;;;;1.88;0.85;;;22.70;44.30;;;;;;5012995;28;20025;-68
2022/05/29 05:31:37;;;;;;;0.93;0.80;;;22.70;44.20;;;;;;5014393;28;20030;-68
2022/05/29 05:34:03;;;;;;;1.95;1.10;;;22.70;44.20;;;;;;5014201;28;20033;-69
2022/05/29 05:36:29;;;;;;;2.15;1.10;;;22.70;44.10;;;;;;5012809;28;20461;-69
2022/05/29 05:38:55;;;;;;;1.05;0.95;;;22.60;43.80;;;;;;5013864;28;20042;-69
2022/05/29 05:41:22;;;;;;;0.98;0.90;;;22.60;43.70;;;;;;5014077;28;20194;-68
2022/05/29 05:43:48;;;;;;;4.10;1.20;;;22.60;43.60;;;;;;5013816;28;20032;-69
2022/05/29 05:46:16;;;;;;;1.52;1.10;;;22.60;43.60;;;;;;5012697;28;20041;-69
2022/05/29 05:48:43;;;;;;;1.08;0.70;;;22.50;43.40;;;;;;5014047;28;20538;-68
2022/05/29 05:51:09;;;;;;;1.25;0.90;;;22.50;43.40;;;;;;5013742;28;20564;-68
2022/05/29 05:53:36;;;;;;;1.77;1.25;;;22.50;43.50;;;;;;5012834;28;20030;-70
2022/05/29 05:56:11;;;;;;;1.08;0.90;;;22.50;43.40;;;;;;5014271;28;20037;-67
2022/05/29 05:58:38;;;;;;;1.10;1.00;;;22.60;43.30;;;;;;5012590;28;20389;-68
2022/05/29 06:01:10;;;;;;;1.83;1.50;;;22.60;43.20;;;;;;5012674;28;20041;-68
2022/05/29 06:03:36;;;;;;;3.47;2.20;;;22.60;43.10;;;;;;5013847;28;20033;-68
2022/05/29 06:06:02;;;;;;;2.20;1.80;;;22.60;43.20;;;;;;5013821;28;20472;-69
2022/05/29 06:08:28;;;;;;;2.53;1.98;;;22.60;43.10;;;;;;5012253;28;20022;-69
2022/05/29 06:10:54;;;;;;;4.28;1.90;;;22.70;43.10;;;;;;5012442;28;20030;-69
2022/05/29 06:13:20;;;;;;;3.28;1.70;;;22.70;43.00;;;;;;5012445;28;20037;-69
2022/05/29 06:15:46;;;;;;;1.30;1.20;;;22.80;42.90;;;;;;5012406;28;20036;-69
2022/05/29 06:18:16;;;;;;;1.27;1.17;;;22.80;42.80;;;;;;5012236;28;20381;-68
2022/05/29 06:20:44;;;;;;;1.20;1.10;;;22.90;42.70;;;;;;5013712;28;20456;-68
2022/05/29 06:23:11;;;;;;;1.42;1.10;;;23.00;42.60;;;;;;5013683;28;20057;-68
2022/05/29 06:25:41;;;;;;;1.45;1.05;;;23.00;42.50;;;;;;5012543;28;20022;-68
2022/05/29 06:28:08;;;;;;;0.95;0.90;;;23.00;42.40;;;;;;5013587;28;20053;-68
2022/05/29 06:30:35;;;;;;;0.80;0.70;;;23.10;42.40;;;;;;5012414;28;20037;-68
2022/05/29 06:33:01;;;;;;;1.00;0.90;;;23.10;42.30;;;;;;5013205;28;20479;-68
2022/05/29 06:35:27;;;;;;;1.45;1.30;;;23.10;42.20;;;;;;5013469;28;20050;-68
2022/05/29 06:37:53;;;;;;;2.13;1.67;;;23.10;42.10;;;;;;5013852;28;20041;-69
2022/05/29 06:40:19;;;;;;;2.00;1.75;;;23.10;42.00;;;;;;5015980;28;20499;-69
2022/05/29 06:42:44;;;;;;;3.28;1.33;;;23.10;42.00;;;;;;5017308;28;20034;-68
2022/05/29 06:45:11;;;;;;;1.77;1.50;;;23.10;41.90;;;;;;5015954;28;20121;-68
2022/05/29 06:47:39;;;;;;;1.23;1.13;;;23.10;41.80;;;;;;5015893;28;20038;-68
2022/05/29 06:50:06;;;;;;;1.65;1.08;;;23.20;41.60;;;;;;5015443;28;20053;-68
2022/05/29 06:52:32;;;;;;;1.88;0.95;;;23.10;41.40;;;;;;5016859;28;20026;-69
2022/05/29 06:54:59;;;;;;;1.40;1.00;;;23.10;41.40;;;;;;5016977;28;20369;-69
2022/05/29 06:57:37;;;;;;;0.95;0.70;;;23.20;41.40;;;;;;5016793;28;20030;-69
2022/05/29 07:08:29;;;;;;;0.88;0.88;;;23.30;41.10;;;;;;5017103;28;20108;-70
2022/05/29 07:11:00;;;;;;;2.10;0.90;;;23.30;41.10;;;;;;5015122;28;20460;-70
2022/05/29 07:13:27;;;;;;;2.15;1.23;;;23.30;41.10;;;;;;5015357;28;20026;-69
2022/05/29 07:15:53;;;;;;;0.80;0.80;;;23.30;41.00;;;;;;5016690;28;20084;-69
2022/05/29 07:18:18;;;;;;;0.70;0.70;;;23.30;40.90;;;;;;5016507;28;20034;-69
2022/05/29 07:20:44;;;;;;;1.10;0.80;;;23.40;40.90;;;;;;5016772;28;20471;-69
2022/05/29 07:23:10;;;;;;;1.10;1.00;;;23.50;40.90;;;;;;5016251;28;20026;-69
2022/05/29 07:25:35;;;;;;;1.15;0.90;;;23.50;40.80;;;;;;5016136;28;20109;-69
2022/05/29 07:28:01;;;;;;;1.23;1.00;;;23.60;40.90;;;;;;5016544;28;20475;-70
2022/05/29 07:30:27;;;;;;;1.40;0.80;;;23.60;40.80;;;;;;5014907;28;20033;-68
2022/05/29 07:32:52;;;;;;;0.98;0.88;;;23.70;40.70;;;;;;5016049;28;20030;-69
2022/05/29 07:35:18;;;;;;;0.93;0.82;;;23.80;40.60;;;;;;5016188;28;20026;-69
2022/05/29 07:37:44;;;;;;;2.40;1.88;;;23.90;40.60;;;;;;5016123;28;20030;-69
2022/05/29 07:40:10;;;;;;;2.45;1.50;;;23.90;40.50;;;;;;5014704;28;20034;-69
2022/05/29 07:45:20;;;;;;;2.78;1.65;;;23.90;40.10;;;;;;5016226;28;20037;-68
2022/05/29 07:47:46;;;;;;;2.80;1.20;;;23.90;40.10;;;;;;5014396;28;20034;-68
2022/05/29 07:50:22;;;;;;;1.75;1.20;;;23.90;40.10;;;;;;5013431;28;20034;-69
2022/05/29 07:52:50;;;;;;;1.95;1.10;;;23.90;40.00;;;;;;5014631;28;20033;-68
2022/05/29 07:55:17;;;;;;;1.40;1.23;;;23.90;40.10;;;;;;5014541;28;20026;-70
2022/05/29 07:57:43;;;;;;;2.45;1.15;;;23.80;40.00;;;;;;5015399;28;20030;-69
2022/05/29 08:00:11;;;;;;;1.00;0.90;;;23.80;40.00;;;;;;5014503;28;20036;-69
2022/05/29 08:02:37;;;;;;;1.20;1.10;;;23.70;40.00;;;;;;5014086;28;20033;-69
2022/05/29 08:05:04;;;;;;;0.95;0.95;;;23.70;40.00;;;;;;5014014;28;20055;-70
2022/05/29 08:07:30;;;;;;;1.58;1.00;;;23.60;40.00;;;;;;5015665;28;20045;-69
2022/05/29 08:09:56;;;;;;;1.23;0.85;;;23.50;40.00;;;;;;5014054;28;20029;-69
2022/05/29 08:12:22;;;;;;;1.30;0.90;;;23.50;39.90;;;;;;5015385;28;20030;-69
2022/05/29 08:14:48;;;;;;;1.17;1.08;;;23.40;40.00;;;;;;5015414;28;20025;-69
2022/05/29 08:17:14;;;;;;;1.13;0.90;;;23.40;40.10;;;;;;5013934;28;20376;-69
2022/05/29 08:19:40;;;;;;;1.05;0.95;;;23.40;40.10;;;;;;5013841;28;20117;-69
2022/05/29 08:22:06;;;;;;;0.90;0.90;;;23.40;40.10;;;;;;5015448;28;20433;-68
2022/05/29 08:30:40;;;;;;;1.58;1.00;;;23.40;39.90;;;;;;5015476;28;20487;-69
2022/05/29 08:33:08;;;;;;;0.88;0.80;;;23.40;40.10;;;;;;5013854;28;20495;-69
2022/05/29 08:35:35;;;;;;;1.33;1.00;;;23.30;40.00;;;;;;5013817;28;20037;-68
2022/05/29 08:38:03;;;;;;;0.70;0.70;;;23.30;40.00;;;;;;5014710;28;20041;-69
2022/05/29 08:40:30;;;;;;;0.93;0.90;;;23.30;40.00;;;;;;5013429;28;20034;-68
2022/05/29 08:42:56;;;;;;;4.97;1.83;;;23.30;40.10;;;;;;5014830;28;20461;-68
2022/05/29 08:45:23;;;;;;;1.30;0.90;;;23.20;40.00;;;;;;5014953;28;20041;-68
2022/05/29 08:47:50;;;;;;;1.17;1.00;;;23.20;40.10;;;;;;5013727;28;20038;-68
2022/05/29 08:50:26;;;;;;;1.25;0.90;;;23.20;40.10;;;;;;5013295;28;20026;-68
2022/05/29 08:53:05;;;;;;;1.00;0.90;;;23.20;40.00;;;;;;5014475;28;20049;-68
2022/05/29 08:55:49;;;;;;;1.20;1.10;;;23.10;40.00;;;;;;5014410;28;20029;-68
2022/05/29 08:58:57;;;;;;;3.50;1.30;;;23.20;40.30;;;;;;5013259;28;20030;-69
2022/05/29 09:02:06;;;;;;;2.50;1.45;;;23.20;40.20;;;;;;5013955;28;20607;-69
2022/05/29 09:04:37;;;;;;;1.73;1.30;;;23.20;40.20;;;;;;5012812;28;20088;-70
2022/05/29 09:07:07;;;;;;;1.55;1.15;;;23.30;40.30;;;;;;5012843;28;20026;-69
2022/05/29 09:09:57;;;;;;;1.50;1.35;;;23.20;40.90;;;;;;5012836;28;20034;-68
2022/05/29 09:12:31;;;;;;;2.58;1.20;;;23.20;40.10;;;;;;5013294;28;20034;-68
2022/05/29 09:15:13;;;;;;;1.60;1.17;;;23.30;40.20;;;;;;5014074;28;20045;-69
2022/05/29 09:17:43;;;;;;;1.10;1.02;;;23.30;40.20;;;;;;5012642;28;20087;-68
2022/05/29 09:20:28;;;;;;;3.22;1.33;;;23.30;40.20;;;;;;5012739;28;20069;-69
2022/05/29 09:22:57;;;;;;;1.73;1.10;;;23.30;40.20;;;;;;5014683;28;20025;-69
2022/05/29 09:25:34;;;;;;;1.25;0.93;;;23.30;40.30;;;;;;5013359;28;20491;-68
2022/05/29 09:28:04;;;;;;;4.30;1.20;;;23.30;40.20;;;;;;5013844;28;20510;-69
2022/05/29 09:30:30;;;;;;;1.70;1.15;;;23.40;40.30;;;;;;5012624;28;20373;-69
2022/05/29 09:33:19;;;;;;;1.27;1.00;;;23.40;40.30;;;;;;5012778;28;20026;-68
2022/05/29 09:35:57;;;;;;;1.20;1.10;;;23.40;40.30;;;;;;5012948;28;20022;-69
2022/05/29 09:38:40;;;;;;;2.13;1.20;;;23.40;40.40;;;;;;5012830;28;20061;-68
2022/05/29 09:41:29;;;;;;;1.53;1.30;;;23.40;40.40;;;;;;5012894;28;20026;-68
2022/05/29 09:44:04;;;;;;;1.40;1.20;;;23.40;40.40;;;;;;5012888;28;20264;-68
2022/05/29 09:46:35;;;;;;;1.75;1.27;;;23.50;40.40;;;;;;5014092;28;20463;-69
2022/05/29 09:51:56;;;;;;;1.42;1.30;;;23.50;40.50;;;;;;5014162;28;20033;-68
2022/05/29 09:54:30;;;;;;;;;;;23.50;40.50;;;;;;5014443;28;20044;-68
2022/05/29 09:57:06;;;;;;;1.20;1.00;;;23.50;40.60;;;;;;5012366;28;19936;-69
2022/05/29 09:59:38;;;;;;;1.80;1.27;;;23.50;40.60;;;;;;5013719;28;20387;-69
2022/05/29 10:02:05;;;;;;;1.15;1.05;;;23.50;40.60;;;;;;5012355;28;20030;-70
2022/05/29 10:04:37;;;;;;;1.58;1.40;;;23.60;40.60;;;;;;5013550;28;20113;-70
2022/05/29 10:07:15;;;;;;;2.47;1.38;;;23.60;40.70;;;;;;5012484;28;20053;-68
2022/05/29 10:10:11;;;;;;;3.92;1.50;;;23.60;40.70;;;;;;5012424;28;20065;-69
2022/05/29 10:12:47;;;;;;;2.75;2.28;;;23.60;41.40;;;;;;5012824;28;20026;-69
2022/05/29 10:15:27;;;;;;;3.78;2.45;;;23.60;41.10;;;;;;5016636;28;20096;-68
2022/05/29 10:17:56;;;;;;;3.58;2.22;;;23.70;41.30;;;;;;5015921;28;20033;-68
2022/05/29 10:20:32;;;;;;;2.60;1.70;;;23.70;41.20;;;;;;5015989;28;20033;-69
2022/05/29 10:23:10;;;;;;;3.25;1.73;;;23.80;41.30;;;;;;5016858;28;20530;-69
2022/05/29 10:26:01;;;;;;;3.00;1.63;;;23.80;41.60;;;;;;5016514;28;20128;-68
2022/05/29 10:28:34;;;;;;;1.83;1.70;;;23.80;42.10;;;;;;5015483;28;20111;-70
2022/05/29 10:31:09;;;;;;;1.55;1.35;;;23.80;41.90;;;;;;5015331;28;20061;-69
2022/05/29 10:33:35;;;;;;;2.10;1.90;;;23.90;42.10;;;;;;5016360;28;20484;-68
2022/05/29 10:36:12;;;;;;;3.00;2.10;;;23.90;42.10;;;;;;5015862;28;20515;-69
2022/05/29 10:38:39;;;;;;;2.17;1.50;;;23.90;42.10;;;;;;5015933;28;20396;-70
2022/05/29 10:41:06;;;;;;;1.40;1.17;;;24.00;42.10;;;;;;5015889;28;20073;-70
2022/05/29 10:43:50;;;;;;;1.55;1.35;;;24.00;42.10;;;;;;5015827;28;20460;-68
2022/05/29 10:46:21;;;;;;;1.37;1.27;;;24.10;42.20;;;;;;5015870;28;20052;-70
2022/05/29 10:48:53;;;;;;;1.33;1.23;;;24.10;42.30;;;;;;5015824;28;20034;-69
2022/05/29 10:51:25;;;;;;;1.50;1.40;;;24.20;42.50;;;;;;5015619;28;20084;-69
2022/05/29 10:54:03;;;;;;;1.60;1.15;;;24.20;42.60;;;;;;5017059;28;20041;-68
2022/05/29 10:56:53;;;;;;;2.88;1.80;;;24.10;42.90;;;;;;5017123;28;20034;-70
2022/05/29 10:59:39;;;;;;;1.13;1.10;;;24.20;42.80;;;;;;5015964;28;20030;-70
2022/05/29 11:05:48;;;;;;;1.65;1.55;;;24.30;42.90;;;;;;5016827;28;20549;-69
2022/05/29 11:08:29;;;;;;;1.52;1.42;;;24.40;43.40;;;;;;5015265;28;20030;-69
2022/05/29 11:11:27;;;;;;;2.45;1.52;;;24.40;42.70;;;;;;5016582;28;20022;-68
2022/05/29 11:14:01;;;;;;;1.52;1.40;;;24.40;43.40;;;;;;5013244;28;20088;-68
2022/05/29 11:16:46;;;;;;;1.45;1.35;;;24.40;43.00;;;;;;5014925;28;20037;-69
2022/05/29 11:19:45;;;;;;;2.15;1.23;;;24.40;43.20;;;;;;5015463;28;20026;-69
2022/05/29 11:22:39;;;;;;;1.73;1.33;;;24.40;43.10;;;;;;5016412;28;20037;-69
2022/05/29 11:25:31;;;;;;;1.73;1.20;;;24.40;43.00;;;;;;5014695;28;20084;-69
2022/05/29 11:28:04;;;;;;;1.80;1.65;;;24.40;43.00;;;;;;5014766;28;20137;-69
2022/05/29 11:30:51;;;;;;;1.83;1.67;;;24.40;43.10;;;;;;5014745;28;20037;-70
2022/05/29 11:33:38;;;;;;;2.75;2.25;;;24.40;43.80;;;;;;5015051;28;20042;-69
2022/05/29 11:36:04;;;;;;;2.53;2.33;;;24.40;43.50;;;;;;5014906;28;20030;-68
2022/05/29 11:38:55;;;;;;;3.83;2.20;;;24.30;43.50;;;;;;5014649;28;20387;-69
2022/05/29 11:41:24;;;;;;;1.60;1.50;;;24.30;43.60;;;;;;5015760;28;20046;-69
2022/05/29 11:43:59;;;;;;;2.78;1.60;;;24.40;43.60;;;;;;5015921;28;20163;-69
2022/05/29 11:52:25;;;;;;;1.63;1.45;;;24.50;43.70;;;;;;5015741;28;20028;-69
2022/05/29 11:55:00;;;;;;;1.75;1.20;;;24.60;43.60;;;;;;5014627;28;20022;-70
2022/05/29 11:57:53;;;;;;;1.35;1.23;;;24.60;43.40;;;;;;5014328;28;20034;-69
2022/05/29 12:00:31;;;;;;;2.20;1.33;;;24.70;43.40;;;;;;5014327;28;20029;-70
2022/05/29 12:03:05;;;;;;;2.08;1.60;;;24.70;43.40;;;;;;5014933;28;20380;-69
2022/05/29 12:05:48;;;;;;;1.33;1.23;;;24.70;43.40;;;;;;5015405;28;20032;-69
2022/05/29 12:08:27;;;;;;;1.30;1.20;;;24.70;43.40;;;;;;5015538;28;20042;-68
2022/05/29 12:11:24;;;;;;;0.90;0.90;;;24.80;43.40;;;;;;5015306;28;20032;-69
2022/05/29 12:14:10;;;;;;;1.40;1.13;;;24.80;43.40;;;;;;5014209;28;20030;-70
2022/05/29 12:16:40;;;;;;;1.00;1.00;;;24.80;43.50;;;;;;5014211;28;20081;-68
2022/05/29 12:19:14;;;;;;;1.30;1.10;;;24.90;43.40;;;;;;5014172;28;20030;-69
2022/05/29 12:21:59;;;;;;;1.33;1.00;;;24.90;43.40;;;;;;5015425;28;20109;-69
2022/05/29 12:24:29;;;;;;;1.27;1.00;;;24.90;43.50;;;;;;5014055;28;20464;-69
2022/05/29 12:27:13;;;;;;;1.08;1.00;;;25.00;43.40;;;;;;5013851;28;20034;-69
2022/05/29 12:29:41;;;;;;;;;;;25.00;43.50;;;;;;5015420;28;20026;-69
2022/05/29 12:32:14;;;;;;;1.00;0.90;;;25.00;43.80;;;;;;5015134;28;20368;-69
2022/05/29 12:35:03;;;;;;;0.80;0.80;;;25.00;43.40;;;;;;5013913;28;20384;-69
2022/05/29 12:37:48;;;;;;;1.23;0.93;;;25.10;43.60;;;;;;5013752;28;20045;-69
2022/05/29 12:40:33;;;;;;;1.20;1.10;;;25.10;43.40;;;;;;5013541;28;20036;-69
2022/05/29 12:43:28;;;;;;;1.52;1.42;;;25.20;43.30;;;;;;5014832;28;20121;-68
2022/05/29 12:46:09;;;;;;;1.45;0.95;;;25.30;43.40;;;;;;5015095;28;20483;-69
2022/05/29 12:48:44;;;;;;;1.77;1.20;;;25.40;43.20;;;;;;5013466;28;20038;-69
2022/05/29 12:51:39;;;;;;;1.38;0.90;;;25.50;43.30;;;;;;5015028;28;20033;-69
2022/05/29 12:54:39;;;;;;;1.23;1.10;;;25.50;43.30;;;;;;5014711;28;20058;-68
2022/05/29 12:57:42;;;;;;;1.38;1.00;;;25.60;43.20;;;;;;5014761;28;20034;-68
2022/05/29 13:00:39;;;;;;;1.92;0.90;;;25.70;43.10;;;;;;5014662;28;20040;-69
2022/05/29 13:03:23;;;;;;;1.35;1.00;;;25.80;43.10;;;;;;5013437;28;20122;-69
2022/05/29 13:06:26;;;;;;;2.35;1.30;;;26.00;43.10;;;;;;5014393;28;20140;-70
2022/05/29 13:09:18;;;;;;;1.85;1.20;;;26.00;42.90;;;;;;5014434;28;20029;-70
2022/05/29 13:11:58;;;;;;;1.20;1.00;;;26.20;42.80;;;;;;5013072;28;20457;-68
2022/05/29 13:14:25;;;;;;;2.38;1.10;;;26.30;42.70;;;;;;5013000;28;20026;-69
2022/05/29 13:17:10;;;;;;;1.30;1.20;;;26.40;42.60;;;;;;5014003;28;20030;-68
2022/05/29 13:19:58;;;;;;;1.52;1.08;;;26.50;42.50;;;;;;5013853;28;20065;-69
2022/05/29 13:22:46;;;;;;;1.17;1.08;;;26.60;42.50;;;;;;5013206;28;20179;-69
2022/05/29 13:25:13;;;;;;;1.98;0.90;;;26.80;42.40;;;;;;5014166;28;20034;-70
2022/05/29 13:27:39;;;;;;;1.38;1.10;;;27.00;42.30;;;;;;5013732;28;20054;-69
2022/05/29 13:30:08;;;;;;;1.10;0.95;;;27.10;42.10;;;;;;5014335;28;20026;-70
2022/05/29 13:32:35;;;;;;;2.05;1.08;;;27.40;42.00;;;;;;5013492;28;20030;-69
2022/05/29 13:35:04;;;;;;;1.17;1.08;;;27.70;41.80;;;;;;5012572;28;20033;-69
2022/05/29 13:37:32;;;;;;;1.00;0.90;;;28.10;41.50;;;;;;5014053;28;20064;-69
2022/05/29 13:40:06;;;;;;;1.35;0.98;;;28.60;41.30;;;;;;5013770;28;20483;-68
2022/05/29 13:42:39;;;;;;;0.98;0.90;;;29.10;41.10;;;;;;5013924;28;20057;-69
2022/05/29 13:45:30;;;;;;;1.15;0.90;;;29.70;40.90;;;;;;5014453;28;20029;-70
2022/05/29 13:48:04;;;;;;;0.82;0.82;;;30.40;40.70;;;;;;5012142;28;20495;-69
2022/05/29 13:50:51;;;;;;;0.90;0.90;;;31.00;40.50;;;;;;5013499;28;20052;-69
2022/05/29 13:53:30;;;;;;;1.30;1.10;;;31.60;40.30;;;;;;5013750;28;20030;-69
2022/05/29 13:55:58;;;;;;;1.10;0.93;;;32.20;40.20;;;;;;5012472;28;20109;-69
2022/05/29 14:04:29;;;;;;;1.33;1.10;;;34.00;39.20;;;;;;5013760;28;20037;-70